Time;durP1;ratioP1;P1;durP2;ratioP2;P2;SDS_P1;SDS_P2;PMS_P1;PMS_P2;Temp;Humidity;BMP_temperature;BMP_pressure;BME280_temperature;BME280_humidity;BME280_pressure;Samples;Min_cycle;Max_cycle;Signal;HPM_P1;HPM_P2
2023/03/27 00:01:10;;;;;;;;;;;;;;;10.61;100.00;96581.41;5087646;28;19956;-69
2023/03/27 00:03:36;;;;;;;;;;;;;;;10.62;100.00;96582.97;5085197;28;19931;-68
2023/03/27 00:06:05;;;;;;;;;;;;;;;10.62;100.00;96576.84;5084170;28;19928;-69
2023/03/27 00:08:32;;;;;;;;;;;;;;;10.61;100.00;96575.28;5082983;28;19925;-69
2023/03/27 00:10:59;;;;;;;;;;;;;;;10.64;100.00;96567.47;5084560;28;19925;-69
2023/03/27 00:13:26;;;;;;;;;;;;;;;10.59;100.00;96567.56;5083265;28;19927;-69
2023/03/27 00:15:53;;;;;;;;;;;;;;;10.45;100.00;96569.44;5080630;28;19952;-69
2023/03/27 00:18:21;;;;;;;;;;;;;;;10.46;100.00;96573.66;5080796;28;19921;-69
2023/03/27 00:20:48;;;;;;;;;;;;;;;10.48;100.00;96571.50;5084413;28;20281;-69
2023/03/27 00:23:15;;;;;;;;;;;;;;;10.46;100.00;96573.66;5084087;28;19920;-69
2023/03/27 00:25:41;;;;;;;;;;;;;;;10.53;100.00;96574.06;5081045;28;19947;-69
2023/03/27 00:28:08;;;;;;;;;;;;;;;10.58;100.00;96557.19;5080465;28;19960;-68
2023/03/27 00:30:35;;;;;;;;;;;;;;;10.58;100.00;96570.53;5082411;28;19948;-68
2023/03/27 00:33:01;;;;;;;;;;;;;;;10.56;100.00;96562.00;5083840;28;19920;-68
2023/03/27 00:35:30;;;;;;;;;;;;;;;10.51;100.00;96562.13;5082543;28;19967;-68
2023/03/27 00:37:57;;;;;;;;;;;;;;;10.54;100.00;96564.19;5080411;28;19925;-68
2023/03/27 00:40:24;;;;;;;;;;;;;;;10.47;100.00;96569.91;5081054;28;19973;-67
2023/03/27 00:42:51;;;;;;;;;;;;;;;10.36;100.00;96560.53;5083914;28;19924;-68
2023/03/27 00:45:19;;;;;;;;;;;;;;;10.38;100.00;96573.56;5082787;28;20360;-68
2023/03/27 00:47:46;;;;;;;;;;;;;;;10.32;100.00;96561.38;5073181;28;19952;-69
2023/03/27 00:50:17;;;;;;;;;;;;;;;10.37;100.00;96564.75;5081890;28;19932;-69
2023/03/27 00:52:47;;;;;;;;;;;;;;;10.36;100.00;96565.84;5085566;28;19964;-68
2023/03/27 00:55:15;;;;;;;;;;;;;;;10.34;100.00;96568.00;5086254;28;19952;-69
2023/03/27 00:57:42;;;;;;;;;;;;;;;10.13;100.00;96564.06;5083332;28;20012;-68
2023/03/27 01:00:11;;;;;;;;;;;;;;;10.05;100.00;96562.09;5080772;28;19960;-69
2023/03/27 01:02:38;;;;;;;;;;;;;;;10.16;100.00;96564.31;5083060;28;19951;-68
2023/03/27 01:05:06;;;;;;;;;;;;;;;10.19;100.00;96560.28;5083767;28;19939;-69
2023/03/27 01:07:32;;;;;;;;;;;;;;;10.25;100.00;96559.09;5081797;28;20050;-68
2023/03/27 01:10:00;;;;;;;;;;;;;;;10.29;100.00;96560.09;5079983;28;19925;-69
2023/03/27 01:12:33;;;;;;;;;;;;;;;10.26;100.00;96563.34;5081217;28;19924;-69
2023/03/27 01:15:06;;;;;;;;;;;;;;;10.27;100.00;96562.28;5083060;28;19925;-68
2023/03/27 01:17:43;;;;;;;;;;;;;;;10.10;100.00;96575.31;5081330;28;19935;-68
2023/03/27 01:20:29;;;;;;;;;;;;;;;10.15;100.00;96567.28;5079445;28;19952;-67
2023/03/27 01:23:07;;;;;;;;;;;;;;;10.26;100.00;96558.03;5072570;28;19924;-68
2023/03/27 01:25:54;;;;;;;;;;;;;;;10.16;100.00;96574.19;5081659;28;19924;-68
2023/03/27 01:28:27;;;;;;;;;;;;;;;10.25;100.00;96562.56;5072824;28;19925;-68
2023/03/27 01:30:57;;;;;;;;;;;;;;;10.09;100.00;96563.88;5077182;28;19950;-68
2023/03/27 01:33:35;;;;;;;;;;;;;;;10.11;100.00;96555.59;5082078;28;19964;-68
2023/03/27 01:36:18;;;;;;;;;;;;;;;10.24;100.00;96565.53;5079241;28;19998;-68
2023/03/27 01:39:05;;;;;;;;;;;;;;;10.26;100.00;96563.34;5082620;28;20020;-68
2023/03/27 01:41:35;;;;;;;;;;;;;;;10.34;100.00;96560.00;5080970;28;20055;-68
2023/03/27 01:44:05;;;;;;;;;;;;;;;10.17;100.00;96559.78;5079173;28;19925;-68
2023/03/27 01:46:34;;;;;;;;;;;;;;;10.29;100.00;96565.44;5080550;28;19920;-68
2023/03/27 01:49:03;;;;;;;;;;;;;;;10.29;100.00;96568.09;5082518;28;19924;-68
2023/03/27 01:51:34;;;;;;;;;;;;;;;10.12;100.00;96567.84;5080948;28;19948;-68
2023/03/27 01:54:01;;;;;;;;;;;;;;;10.12;100.00;96583.84;5078986;28;20603;-68
2023/03/27 01:56:31;;;;;;;;;;;;;;;10.14;100.00;96587.84;5080008;28;19971;-68
2023/03/27 01:59:03;;;;;;;;;;;;;;;10.10;100.00;96586.00;5082295;28;19947;-68
2023/03/27 02:01:32;;;;;;;;;;;;;;;9.97;100.00;96582.19;5080733;28;19936;-68
2023/03/27 02:04:00;;;;;;;;;;;;;;;10.00;100.00;96581.63;5078685;28;19960;-68
2023/03/27 02:06:30;;;;;;;;;;;;;;;10.01;100.00;96582.41;5079724;28;19960;-69
2023/03/27 02:08:59;;;;;;;;;;;;;;;10.06;100.00;96574.31;5082198;28;19966;-69
2023/03/27 02:11:27;;;;;;;;;;;;;;;10.17;100.00;96581.91;5081265;28;19924;-69
2023/03/27 02:13:56;;;;;;;;;;;;;;;10.23;100.00;96586.09;5078450;28;19987;-69
2023/03/27 02:16:27;;;;;;;;;;;;;;;10.22;100.00;96583.69;5078901;28;19960;-69
2023/03/27 02:18:55;;;;;;;;;;;;;;;10.24;100.00;96589.53;5081965;28;19924;-69
2023/03/27 02:21:22;;;;;;;;;;;;;;;10.12;100.00;96586.50;5081589;28;19925;-69
2023/03/27 02:23:48;;;;;;;;;;;;;;;10.15;100.00;96588.63;5078344;28;19925;-69
2023/03/27 02:26:15;;;;;;;;;;;;;;;10.15;100.00;96594.72;5078283;28;19924;-69
2023/03/27 02:28:48;;;;;;;;;;;;;;;10.20;100.00;96596.53;5081239;28;19947;-69
2023/03/27 02:31:25;;;;;;;;;;;;;;;10.10;100.00;96600.13;5081165;28;19992;-69
2023/03/27 02:34:00;;;;;;;;;;;;;;;9.98;100.00;96599.78;5071105;28;20337;-69
2023/03/27 02:36:29;;;;;;;;;;;;;;;10.01;100.00;96601.06;5079360;28;19956;-68
2023/03/27 02:38:59;;;;;;;;;;;;;;;9.96;100.00;96603.84;5082108;28;19950;-68
2023/03/27 02:41:28;;;;;;;;;;;;;;;10.05;100.00;96610.09;5081014;28;19931;-69
2023/03/27 02:43:59;;;;;;;;;;;;;;;9.76;100.00;96608.38;5078396;28;19984;-69
2023/03/27 02:46:28;;;;;;;;;;;;;;;9.89;100.00;96606.88;5078942;28;19928;-68
2023/03/27 02:48:58;;;;;;;;;;;;;;;9.83;100.00;96601.91;5081581;28;19995;-68
2023/03/27 02:51:26;;;;;;;;;;;;;;;9.94;100.00;96608.66;5080845;28;19924;-68
2023/03/27 02:53:56;;;;;;;;;;;;;;;10.03;100.00;96617.56;5077999;28;20053;-68
2023/03/27 02:56:25;;;;;;;;;;;;;;;10.04;100.00;96611.16;5078403;28;19985;-68
2023/03/27 02:58:56;;;;;;;;;;;;;;;10.01;100.00;96620.53;5081730;28;20601;-68
2023/03/27 03:01:25;;;;;;;;;;;;;;;10.06;100.00;96617.00;5081559;28;19925;-68
2023/03/27 03:03:56;;;;;;;;;;;;;;;10.01;100.00;96620.53;5078703;28;19921;-68
2023/03/27 03:06:28;;;;;;;;;;;;;;;10.04;100.00;96619.97;5079056;28;19947;-68
2023/03/27 03:09:00;;;;;;;;;;;;;;;10.09;100.00;96619.06;5082189;28;19930;-68
2023/03/27 03:11:28;;;;;;;;;;;;;;;10.10;100.00;96623.34;5079831;28;19928;-68
2023/03/27 03:13:54;;;;;;;;;;;;;;;10.02;100.00;96629.34;5078414;28;19967;-68
2023/03/27 03:16:20;;;;;;;;;;;;;;;9.98;100.00;96623.00;5078306;28;20012;-68
2023/03/27 03:18:47;;;;;;;;;;;;;;;10.02;100.00;96618.69;5081927;28;19952;-68
2023/03/27 03:21:14;;;;;;;;;;;;;;;9.99;100.00;96622.72;5082084;28;19951;-69
2023/03/27 03:23:41;;;;;;;;;;;;;;;9.92;100.00;96626.81;5078961;28;19928;-69
2023/03/27 03:26:08;;;;;;;;;;;;;;;9.98;100.00;96631.78;5078319;28;19948;-69
2023/03/27 03:28:34;;;;;;;;;;;;;;;9.99;100.00;96632.59;5080223;28;20004;-69
2023/03/27 03:31:01;;;;;;;;;;;;;;;10.06;100.00;96633.78;5081527;28;19931;-69
2023/03/27 03:33:28;;;;;;;;;;;;;;;10.05;100.00;96642.09;5080367;28;19935;-69
2023/03/27 03:35:57;;;;;;;;;;;;;;;10.12;100.00;96655.88;5078065;28;19925;-68
2023/03/27 03:38:24;;;;;;;;;;;;;;;10.03;100.00;96654.91;5078701;28;19924;-68
2023/03/27 03:40:53;;;;;;;;;;;;;;;9.99;100.00;96653.94;5081610;28;19925;-68
2023/03/27 03:43:20;;;;;;;;;;;;;;;10.03;100.00;96657.56;5082344;28;19927;-69
2023/03/27 03:45:46;;;;;;;;;;;;;;;9.88;100.00;96661.25;5073951;28;19924;-69
2023/03/27 03:48:13;;;;;;;;;;;;;;;9.61;100.00;96675.25;5081812;28;19932;-69
2023/03/27 03:50:39;;;;;;;;;;;;;;;9.28;100.00;96686.84;5084415;28;19924;-69
2023/03/27 03:53:05;;;;;;;;;;;;;;;8.83;100.00;96684.66;5085368;28;19928;-69
2023/03/27 03:55:32;;;;;;;;;;;;;;;8.64;100.00;96703.19;5083586;28;19955;-69
2023/03/27 03:58:00;;;;;;;;;;;;;;;8.33;100.00;96701.84;5081875;28;19955;-68
2023/03/27 04:00:27;;;;;;;;;;;;;;;8.35;100.00;96711.16;5082218;28;20578;-68
2023/03/27 04:02:53;;;;;;;;;;;;;;;8.14;100.00;96725.59;5085092;28;20284;-69
2023/03/27 04:05:20;;;;;;;;;;;;;;;7.99;100.00;96739.78;5085025;28;19925;-68
2023/03/27 04:07:48;;;;;;;;;;;;;;;8.01;100.00;96743.00;5081712;28;19924;-68
2023/03/27 04:10:15;;;;;;;;;;;;;;;7.55;100.00;96755.66;5081629;28;19927;-68
2023/03/27 04:12:45;;;;;;;;;;;;;;;7.35;100.00;96758.41;5084779;28;20414;-68
2023/03/27 04:15:13;;;;;;;;;;;;;;;7.49;100.00;96769.22;5084676;28;19939;-68
2023/03/27 04:17:42;;;;;;;;;;;;;;;7.25;100.00;96779.66;5080844;28;20137;-69
2023/03/27 04:20:09;;;;;;;;;;;;;;;7.54;100.00;96782.53;5080952;28;19992;-68
2023/03/27 04:22:36;;;;;;;;;;;;;;;7.15;100.00;96797.50;5083135;28;19936;-69
2023/03/27 04:25:03;;;;;;;;;;;;;;;7.11;100.00;96796.44;5084595;28;19925;-68
2023/03/27 04:27:30;;;;;;;;;;;;;;;6.65;100.00;96795.66;5083092;28;19931;-69
2023/03/27 04:29:56;;;;;;;;;;;;;;;6.77;100.00;96806.78;5079662;28;19948;-68
2023/03/27 04:32:25;;;;;;;;;;;;;;;6.62;100.00;96823.50;5081109;28;19984;-68
2023/03/27 04:34:53;;;;;;;;;;;;;;;6.39;100.00;96834.59;5083061;28;19935;-68
2023/03/27 04:37:19;;;;;;;;;;;;;;;6.11;100.00;96843.00;5084264;28;19925;-68
2023/03/27 04:39:45;;;;;;;;;;;;;;;6.16;100.00;96846.44;5072655;28;19956;-69
2023/03/27 04:42:12;;;;;;;;;;;;;;;6.26;100.00;96862.41;5080737;28;19925;-68
2023/03/27 04:44:39;;;;;;;;;;;;;;;6.17;100.00;96863.97;5083353;28;19924;-68
2023/03/27 04:47:06;;;;;;;;;;;;;;;5.94;100.00;96872.38;5084076;28;19925;-68
2023/03/27 04:49:38;;;;;;;;;;;;;;;6.09;100.00;96888.31;5082255;28;19928;-68
2023/03/27 04:52:05;;;;;;;;;;;;;;;6.02;100.00;96900.22;5080366;28;19929;-69
2023/03/27 04:54:32;;;;;;;;;;;;;;;5.82;100.00;96890.25;5081514;28;19984;-68
2023/03/27 04:57:00;;;;;;;;;;;;;;;6.17;100.00;96911.69;5084009;28;19996;-68
2023/03/27 04:59:29;;;;;;;;;;;;;;;5.83;100.00;96913.06;5082801;28;19924;-68
2023/03/27 05:01:56;;;;;;;;;;;;;;;5.87;100.00;96924.78;5080262;28;19925;-69
2023/03/27 05:04:25;;;;;;;;;;;;;;;5.78;100.00;96942.19;5080601;28;19925;-70
2023/03/27 05:06:53;;;;;;;;;;;;;;;6.34;100.00;96928.19;5083628;28;19981;-68
2023/03/27 05:09:19;;;;;;;;;;;;;;;5.86;100.00;96939.06;5083606;28;20252;-68
2023/03/27 05:11:48;;;;;;;;;;;;;;;5.39;100.00;96942.44;5072075;28;19932;-68
2023/03/27 05:14:15;;;;;;;;;;;;;;;5.66;100.00;96968.06;5078648;28;19952;-69
2023/03/27 05:16:41;;;;;;;;;;;;;;;5.62;100.00;96969.63;5083022;28;19936;-68
2023/03/27 05:19:07;;;;;;;;;;;;;;;5.50;100.00;96975.09;5083430;28;19929;-69
2023/03/27 05:21:34;;;;;;;;;;;;;;;5.80;100.00;96988.56;5081292;28;19984;-68
2023/03/27 05:24:01;;;;;;;;;;;;;;;5.72;100.00;96994.34;5080015;28;20332;-69
2023/03/27 05:26:28;;;;;;;;;;;;;;;6.50;100.00;96997.97;5080986;28;19931;-69
2023/03/27 05:28:55;;;;;;;;;;;;;;;6.66;100.00;97004.16;5083335;28;19925;-69
2023/03/27 05:31:21;;;;;;;;;;;;;;;6.23;100.00;97024.63;5083166;28;19927;-68
2023/03/27 05:33:47;;;;;;;;;;;;;;;6.94;100.00;97016.97;5079782;28;19936;-69
2023/03/27 05:36:15;;;;;;;;;;;;;;;6.86;100.00;97022.81;5079816;28;19932;-69
2023/03/27 05:38:41;;;;;;;;;;;;;;;6.65;100.00;97037.06;5082607;28;20526;-68
2023/03/27 05:41:09;;;;;;;;;;;;;;;6.66;100.00;97039.44;5083081;28;19944;-68
2023/03/27 05:43:36;;;;;;;;;;;;;;;6.53;100.00;97046.00;5080860;28;19947;-68
2023/03/27 05:46:02;;;;;;;;;;;;;;;6.59;100.00;97059.31;5079415;28;19960;-68
2023/03/27 05:48:29;;;;;;;;;;;;;;;6.36;100.00;97077.22;5080551;28;20363;-69
2023/03/27 05:50:56;;;;;;;;;;;;;;;5.94;100.00;97073.75;5082999;28;19970;-68
2023/03/27 05:53:23;;;;;;;;;;;;;;;5.71;100.00;97085.44;5082565;28;19967;-69
2023/03/27 05:55:49;;;;;;;;;;;;;;;5.68;100.00;97088.59;5079582;28;19985;-68
2023/03/27 05:58:17;;;;;;;;;;;;;;;6.05;100.00;97096.63;5079290;28;19967;-69
2023/03/27 06:00:44;;;;;;;;;;;;;;;6.37;100.00;97099.22;5082940;28;19991;-68
2023/03/27 06:03:11;;;;;;;;;;;;;;;6.59;100.00;97096.44;5083187;28;19947;-69
2023/03/27 06:05:39;;;;;;;;;;;;;;;6.83;100.00;97113.56;5079885;28;19924;-69
2023/03/27 06:08:06;;;;;;;;;;;;;;;6.35;100.00;97127.84;5079270;28;19933;-69
2023/03/27 06:10:33;;;;;;;;;;;;;;;6.29;100.00;97129.66;5081312;28;19960;-68
2023/03/27 06:13:01;;;;;;;;;;;;;;;6.26;100.00;97127.53;5083016;28;19927;-69
2023/03/27 06:15:29;;;;;;;;;;;;;;;5.93;100.00;97143.69;5081561;28;19925;-69
2023/03/27 06:17:56;;;;;;;;;;;;;;;6.10;100.00;97143.56;5079572;28;19960;-68
2023/03/27 06:20:23;;;;;;;;;;;;;;;6.21;100.00;97154.00;5079716;28;19968;-69
2023/03/27 06:22:51;;;;;;;;;;;;;;;5.89;100.00;97150.53;5082882;28;19970;-69
2023/03/27 06:25:17;;;;;;;;;;;;;;;5.77;100.00;97168.41;5082925;28;19952;-68
2023/03/27 06:27:45;;;;;;;;;;;;;;;5.97;100.00;97173.94;5079579;28;19968;-69
2023/03/27 06:30:12;;;;;;;;;;;;;;;5.64;100.00;97182.03;5079401;28;19908;-69
2023/03/27 06:32:43;;;;;;;;;;;;;;;5.58;100.00;97193.63;5081337;28;19929;-69
2023/03/27 06:35:10;;;;;;;;;;;;;;;5.80;100.00;97202.34;5082898;28;19947;-69
2023/03/27 06:37:36;;;;;;;;;;;;;;;5.98;100.00;97208.13;5080829;28;20676;-68
2023/03/27 06:40:04;;;;;;;;;;;;;;;6.00;100.00;97218.50;5079372;28;19928;-68
2023/03/27 06:42:33;;;;;;;;;;;;;;;6.43;100.00;97220.22;5080613;28;19970;-68
2023/03/27 06:44:59;;;;;;;;;;;;;;;5.94;100.00;97232.75;5083083;28;19955;-69
2023/03/27 06:47:28;;;;;;;;;;;;;;;6.34;100.00;97248.25;5080313;28;19927;-69
2023/03/27 06:49:55;;;;;;;;;;;;;;;6.93;100.00;97241.78;5079360;28;19924;-69
2023/03/27 06:52:22;;;;;;;;;;;;;;;6.46;100.00;97257.63;5079669;28;19960;-69
2023/03/27 06:54:48;;;;;;;;;;;;;;;6.23;100.00;97263.25;5082879;28;19968;-69
2023/03/27 06:57:15;;;;;;;;;;;;;;;5.87;100.00;97280.63;5082946;28;19931;-68
2023/03/27 06:59:41;;;;;;;;;;;;;;;6.30;100.00;97273.66;5078774;28;19988;-68
2023/03/27 07:02:09;;;;;;;;;;;;;;;6.03;100.00;97289.56;5079593;28;19924;-68
2023/03/27 07:04:37;;;;;;;;;;;;;;;6.28;100.00;97292.44;5081500;28;19984;-68
2023/03/27 07:07:04;;;;;;;;;;;;;;;6.74;100.00;97293.69;5081575;28;19924;-68
2023/03/27 07:09:31;;;;;;;;;;;;;;;6.44;100.00;97304.81;5085226;28;19931;-68
2023/03/27 07:11:58;;;;;;;;;;;;;;;6.39;100.00;97326.00;5084161;28;19932;-68
2023/03/27 07:14:24;;;;;;;;;;;;;;;6.71;100.00;97333.19;5083158;28;19921;-68
2023/03/27 07:16:50;;;;;;;;;;;;;;;6.98;100.00;97325.97;5087977;28;19988;-68
2023/03/27 07:19:17;;;;;;;;;;;;;;;6.94;100.00;97343.44;5092478;28;19943;-68
2023/03/27 07:21:44;;;;;;;;;;;;;;;6.58;100.00;97345.00;5087761;28;20179;-68
2023/03/27 07:24:12;;;;;;;;;;;;;;;6.42;100.00;97346.72;5084444;28;20032;-68
2023/03/27 07:26:38;;;;;;;;;;;;;;;6.26;100.00;97355.53;5085115;28;19924;-68
2023/03/27 07:29:09;;;;;;;;;;;;;;;6.30;100.00;97361.97;5086093;28;19991;-68
2023/03/27 07:31:35;;;;;;;;;;;;;;;6.18;100.00;97365.78;5083322;28;19924;-68
2023/03/27 07:34:02;;;;;;;;;;;;;;;6.42;100.00;97367.91;5081831;28;19924;-67
2023/03/27 07:36:29;;;;;;;;;;;;;;;6.39;100.00;97379.03;5081667;28;19963;-68
2023/03/27 07:38:55;;;;;;;;;;;;;;;6.34;100.00;97386.94;5085135;28;19925;-68
2023/03/27 07:41:23;;;;;;;;;;;;;;;6.75;100.00;97395.28;5085155;28;19932;-68
2023/03/27 07:43:49;;;;;;;;;;;;;;;6.81;100.00;97391.63;5081549;28;19959;-68
2023/03/27 07:46:16;;;;;;;;;;;;;;;7.18;100.00;97405.00;5081698;28;19924;-68
2023/03/27 07:48:42;;;;;;;;;;;;;;;7.57;100.00;97407.16;5084695;28;19980;-68
2023/03/27 07:51:09;;;;;;;;;;;;;;;7.48;100.00;97411.34;5084861;28;20019;-68
2023/03/27 07:53:35;;;;;;;;;;;;;;;7.03;100.00;97409.09;5082554;28;19992;-68
2023/03/27 07:56:02;;;;;;;;;;;;;;;7.37;100.00;97422.94;5081404;28;20004;-69
2023/03/27 07:58:30;;;;;;;;;;;;;;;7.14;100.00;97417.16;5082321;28;19959;-68
2023/03/27 08:01:00;;;;;;;;;;;;;;;6.91;100.00;97410.31;5084668;28;19968;-68
2023/03/27 08:03:27;;;;;;;;;;;;;;;6.79;100.00;97429.06;5083887;28;19936;-68
2023/03/27 08:05:54;;;;;;;;;;;;;;;7.11;100.00;97430.94;5081224;28;19956;-68
2023/03/27 08:08:21;;;;;;;;;;;;;;;7.18;100.00;97437.63;5081178;28;19924;-68
2023/03/27 08:10:47;;;;;;;;;;;;;;;6.45;100.00;97441.69;5084562;28;19935;-69
2023/03/27 08:13:14;;;;;;;;;;;;;;;6.81;100.00;97439.41;5084653;28;19925;-68
2023/03/27 08:15:41;;;;;;;;;;;;;;;6.20;100.00;97446.69;5081241;28;20039;-68
2023/03/27 08:18:10;;;;;;;;;;;;;;;6.06;100.00;97456.06;5081571;28;19925;-68
2023/03/27 08:20:36;;;;;;;;;;;;;;;6.37;100.00;97470.50;5083322;28;19925;-68
2023/03/27 08:23:03;;;;;;;;;;;;;;;6.69;100.00;97468.75;5084278;28;20001;-68
2023/03/27 08:25:31;;;;;;;;;;;;;;;6.62;100.00;97472.66;5082958;28;20007;-68
2023/03/27 08:27:58;;;;;;;;;;;;;;;7.09;100.00;97478.19;5079444;28;19951;-69
2023/03/27 08:30:24;;;;;;;;;;;;;;;7.45;100.00;97472.94;5080023;28;19952;-68
2023/03/27 08:32:52;;;;;;;;;;;;;;;7.09;100.00;97481.63;5084054;28;19972;-68
2023/03/27 08:35:18;;;;;;;;;;;;;;;6.71;100.00;97500.34;5083998;28;20023;-68
2023/03/27 08:37:45;;;;;;;;;;;;;;;6.77;100.00;97486.09;5080802;28;20001;-70
2023/03/27 08:40:16;;;;;;;;;;;;;;;6.90;100.00;97498.97;5080791;28;19978;-68
2023/03/27 08:42:43;;;;;;;;;;;;;;;7.05;100.00;97499.13;5083501;28;20008;-69
2023/03/27 08:45:17;;;;;;;;;;;;;;;6.49;100.00;97505.66;5084064;28;19980;-68
2023/03/27 08:47:46;;;;;;;;;;;;;;;6.46;100.00;97508.81;5080576;28;19963;-68
2023/03/27 08:50:21;;;;;;;;;;;;;;;6.50;100.00;97523.97;5080291;28;19925;-69
2023/03/27 08:52:48;;;;;;;;;;;;;;;6.58;100.00;97514.78;5072220;28;19928;-69
2023/03/27 08:55:17;;;;;;;;;;;;;;;7.14;100.00;97545.44;5080285;28;19921;-68
2023/03/27 08:57:44;;;;;;;;;;;;;;;7.16;100.00;97531.88;5083254;28;19942;-68
2023/03/27 09:00:17;;;;;;;;;;;;;;;6.91;100.00;97543.03;5079075;28;19992;-68
2023/03/27 09:02:47;;;;;;;;;;;;;;;7.28;100.00;97536.00;5083279;28;19952;-68
2023/03/27 09:05:16;;;;;;;;;;;;;;;7.45;100.00;97555.31;5083430;28;19948;-68
2023/03/27 09:07:48;;;;;;;;;;;;;;;6.70;100.00;97557.91;5080204;28;20006;-69
2023/03/27 09:10:18;;;;;;;;;;;;;;;6.97;100.00;97555.31;5080022;28;19947;-68
2023/03/27 09:12:55;;;;;;;;;;;;;;;7.37;100.00;97554.94;5083283;28;19966;-68
2023/03/27 09:15:24;;;;;;;;;;;;;;;7.21;100.00;97556.63;5082758;28;19924;-68
2023/03/27 09:17:53;;;;;;;;;;;;;;;7.54;100.00;97559.13;5079524;28;19992;-67
2023/03/27 09:20:23;;;;;;;;;;;;;;;7.57;100.00;97568.44;5079637;28;19920;-68
2023/03/27 09:22:53;;;;;;;;;;;;;;;7.41;100.00;97567.47;5072054;28;19929;-68
2023/03/27 09:25:23;;;;;;;;;;;;;;;7.34;100.00;97587.31;5078612;28;19929;-68
2023/03/27 09:27:51;;;;;;;;;;;;;;;7.03;100.00;97580.88;5072036;28;19928;-68
2023/03/27 09:30:20;;;;;;;;;;;;;;;7.34;100.00;97593.44;5079528;28;19948;-68
2023/03/27 09:32:49;;;;;;;;;;;;;;;7.79;100.00;97584.31;5071500;28;19977;-68
2023/03/27 09:35:17;;;;;;;;;;;;;;;8.06;100.00;97590.38;5079378;28;19932;-69
2023/03/27 09:37:45;;;;;;;;;;;;;;;8.03;100.00;97602.34;5082687;28;19955;-68
2023/03/27 09:40:18;;;;;;;;;;;;;;;8.02;100.00;97603.38;5098526;28;19924;-68
2023/03/27 09:42:46;;;;;;;;;;;;;;;7.95;100.00;97602.78;5079378;28;19937;-68
2023/03/27 09:45:13;;;;;;;;;;;;;;;8.25;100.00;97599.56;5079190;28;19925;-68
2023/03/27 09:47:45;;;;;;;;;;;;;;;8.37;100.00;97610.84;5081732;28;19933;-68
2023/03/27 09:50:23;;;;;;;;;;;;;;;8.41;100.00;97625.25;5082606;28;20416;-69
2023/03/27 09:52:51;;;;;;;;;;;;;;;8.00;99.56;97618.00;5071663;28;19932;-68
2023/03/27 09:55:26;;;;;;;;;;;;;;;7.81;100.00;97614.91;5079026;28;19924;-68
2023/03/27 09:57:57;;;;;;;;;;;;;;;7.79;100.00;97648.09;5071460;28;19936;-68
2023/03/27 10:00:28;;;;;;;;;;;;;;;7.86;100.00;97646.06;5078912;28;19951;-68
2023/03/27 10:02:59;;;;;;;;;;;;;;;7.73;95.51;97638.47;5081017;28;19992;-68
2023/03/27 10:05:26;;;;;;;;;;;;;;;7.51;98.26;97657.94;5081320;28;19980;-69
2023/03/27 10:07:52;;;;;;;;;;;;;;;7.30;94.85;97656.09;5077543;28;19995;-69
2023/03/27 10:10:19;;;;;;;;;;;;;;;7.39;98.06;97662.56;5078624;28;19947;-69
2023/03/27 10:12:50;;;;;;;;;;;;;;;7.04;83.68;97660.28;5065820;28;19988;-69
2023/03/27 10:15:33;;;;;;;;;;;;;;;7.29;84.35;97675.72;5074194;28;19931;-68
2023/03/27 10:18:00;;;;;;;;;;;;;;;7.36;83.54;97670.25;5072073;28;19920;-68
2023/03/27 10:20:27;;;;;;;;;;;;;;;8.00;87.82;97674.63;5079060;28;20435;-69
2023/03/27 10:22:54;;;;;;;;;;;;;;;8.01;76.27;97668.28;5081582;28;19959;-69
2023/03/27 10:25:21;;;;;;;;;;;;;;;7.72;71.46;97685.50;5081443;28;19928;-69
2023/03/27 10:27:50;;;;;;;;;;;;;;;7.38;68.32;97684.06;5070361;28;19986;-71
2023/03/27 10:30:27;;;;;;;;;;;;;;;7.65;76.69;97700.84;5078079;28;20488;-68
2023/03/27 10:32:53;;;;;;;;;;;;;;;7.12;75.99;97720.09;5070895;28;19971;-68
2023/03/27 10:35:25;;;;;;;;;;;;;;;6.74;83.77;97722.78;5078146;28;19921;-67
2023/03/27 10:37:52;;;;;;;;;;;;;;;7.31;90.89;97726.75;5069582;28;19929;-68
2023/03/27 10:40:20;;;;;;;;;;;;;;;6.76;87.07;97718.00;5078075;28;19963;-68
2023/03/27 10:42:47;;;;;;;;;;;;;;;7.46;93.33;97729.59;5069720;28;20480;-68
2023/03/27 10:45:16;;;;;;;;;;;;;;;7.41;90.60;97726.88;5077954;28;19924;-69
2023/03/27 10:47:46;;;;;;;;;;;;;;;7.03;82.58;97726.88;5080864;28;19952;-69
2023/03/27 10:50:15;;;;;;;;;;;;;;;7.13;81.46;97719.06;5081412;28;19928;-69
2023/03/27 10:52:49;;;;;;;;;;;;;;;7.26;77.86;97717.91;5077821;28;19928;-69
2023/03/27 10:55:22;;;;;;;;;;;;;;;7.26;72.54;97713.41;5077028;28;19960;-69
2023/03/27 10:57:52;;;;;;;;;;;;;;;7.27;71.27;97707.03;5070191;28;19953;-67
2023/03/27 11:00:31;;;;;;;;;;;;;;;7.57;71.99;97715.41;5078136;28;19929;-67
2023/03/27 11:03:00;;;;;;;;;;;;;;;7.44;67.80;97734.34;5071564;28;20000;-69
2023/03/27 11:05:29;;;;;;;;;;;;;;;8.19;77.44;97738.91;5079008;28;20281;-68
2023/03/27 11:08:01;;;;;;;;;;;;;;;8.46;78.78;97745.03;5081468;28;19928;-68
2023/03/27 11:10:31;;;;;;;;;;;;;;;8.38;72.06;97734.88;5080537;28;19928;-68
2023/03/27 11:12:59;;;;;;;;;;;;;;;8.25;71.47;97751.22;5078205;28;20424;-68
2023/03/27 11:15:30;;;;;;;;;;;;;;;8.48;73.35;97752.78;5077401;28;19967;-68
2023/03/27 11:18:00;;;;;;;;;;;;;;;8.77;74.74;97763.91;5081372;28;19948;-68
2023/03/27 11:20:30;;;;;;;;;;;;;;;8.37;69.95;97757.19;5080652;28;19921;-69
2023/03/27 11:22:59;;;;;;;;;;;;;;;8.76;72.96;97759.66;5078029;28;19929;-69
2023/03/27 11:25:30;;;;;;;;;;;;;;;8.86;67.79;97776.50;5078585;28;20060;-69
2023/03/27 11:28:01;;;;;;;;;;;;;;;8.36;65.38;97787.50;5081353;28;19960;-69
2023/03/27 11:30:34;;;;;;;;;;;;;;;7.87;70.28;97793.88;5075404;28;19925;-69
2023/03/27 11:33:24;;;;;;;;;;;;;;;8.02;75.19;97791.38;5081575;28;19950;-69
2023/03/27 11:35:53;;;;;;;;;;;;;;;8.60;79.95;97794.13;5070131;28;19925;-69
2023/03/27 11:38:23;;;;;;;;;;;;;;;8.50;69.57;97782.59;5077480;28;19960;-69
2023/03/27 11:40:50;;;;;;;;;;;;;;;8.36;68.50;97786.72;5069725;28;19947;-69
2023/03/27 11:43:17;;;;;;;;;;;;;;;8.25;64.27;97780.47;5077220;28;19931;-69
2023/03/27 11:45:47;;;;;;;;;;;;;;;8.80;69.68;97792.69;5080500;28;19924;-69
2023/03/27 11:48:25;;;;;;;;;;;;;;;8.64;65.88;97786.44;5080682;28;19971;-69
2023/03/27 11:50:56;;;;;;;;;;;;;;;8.92;69.76;97801.31;5069802;28;20544;-69
2023/03/27 11:53:30;;;;;;;;;;;;;;;8.80;67.37;97814.00;5077561;28;19951;-69
2023/03/27 11:56:02;;;;;;;;;;;;;;;8.63;68.12;97812.25;5080976;28;19991;-69
2023/03/27 11:58:31;;;;;;;;;;;;;;;8.24;64.87;97815.28;5079728;28;19924;-68
2023/03/27 12:01:06;;;;;;;;;;;;;;;7.72;65.26;97806.97;5076400;28;19959;-69
2023/03/27 12:03:37;;;;;;;;;;;;;;;7.95;69.98;97817.38;5079170;28;19924;-69
2023/03/27 12:06:12;;;;;;;;;;;;;;;8.32;72.33;97831.66;5080540;28;19948;-69
2023/03/27 12:08:49;;;;;;;;;;;;;;;7.87;66.76;97820.44;5083322;28;19921;-69
2023/03/27 12:11:17;;;;;;;;;;;;;;;8.25;72.98;97831.00;5084393;28;19924;-68
2023/03/27 12:14:02;;;;;;;;;;;;;;;7.86;70.60;97819.66;5081278;28;19952;-68
2023/03/27 12:16:38;;;;;;;;;;;;;;;8.53;75.83;97820.16;5081531;28;19972;-68
2023/03/27 12:19:16;;;;;;;;;;;;;;;8.87;71.94;97823.41;5084194;28;19982;-68
2023/03/27 12:21:47;;;;;;;;;;;;;;;9.09;70.86;97812.66;5081080;28;19929;-68
2023/03/27 12:24:18;;;;;;;;;;;;;;;9.03;66.57;97806.47;5080661;28;19920;-68
2023/03/27 12:26:51;;;;;;;;;;;;;;;9.07;64.12;97820.06;5083698;28;19920;-69
2023/03/27 12:29:24;;;;;;;;;;;;;;;9.05;61.34;97814.19;5084070;28;19964;-69
2023/03/27 12:32:00;;;;;;;;;;;;;;;9.23;60.26;97824.44;5078788;28;19924;-69
2023/03/27 12:34:33;;;;;;;;;;;;;;;9.15;58.35;97811.63;5079764;28;19947;-69
2023/03/27 12:37:01;;;;;;;;;;;;;;;9.21;59.00;97816.72;5083754;28;19970;-69
2023/03/27 12:39:28;;;;;;;;;;;;;;;9.35;61.19;97822.41;5082905;28;19983;-69
2023/03/27 12:41:54;;;;;;;;;;;;;;;9.43;61.85;97835.25;5080383;28;19921;-69
2023/03/27 12:44:29;;;;;;;;;;;;;;;9.15;61.83;97851.59;5080353;28;19932;-69
2023/03/27 12:47:15;;;;;;;;;;;;;;;8.35;63.90;97839.16;5071887;28;19932;-69
2023/03/27 12:49:43;;;;;;;;;;;;;;;7.99;66.74;97845.06;5083370;28;19932;-68
2023/03/27 12:52:10;;;;;;;;;;;;;;;7.77;67.70;97831.75;5084323;28;20013;-69
2023/03/27 12:54:37;;;;;;;;;;;;;;;7.58;64.09;97841.88;5082048;28;19951;-68